WetterOnline ( https://www.wetteronline.de )

Wetter aktuell Letschin

Aktuelles Wetter: Manschnow (16m)

6-stündlich | Neueste Meldungen
Ortszeit Temperatur Wetter
Di, 17.05. 8:00 13.4° C bedeckt
Di, 17.05. 2:00 14.9° C wolkig
Mo, 16.05. 20:00 21.0° C bedeckt
Mo, 16.05. 14:00 22.2° C wolkig
Mo, 16.05. 8:00 12.1° C fast wolkenlos
Mo, 16.05. 2:00 9.0° C wolkig
So, 15.05. 20:00 18.9° C wolkenlos
So, 15.05. 14:00 19.2° C wolkenlos
Ortszeit Temperatur Wetter
Di, 17.05. 8:30 13.2° C bedeckt
Di, 17.05. 8:20 13.2° C bedeckt
Di, 17.05. 8:10 13.4° C bedeckt
Di, 17.05. 8:00 13.4° C bedeckt
Di, 17.05. 7:50 13.4° C bedeckt
Di, 17.05. 7:40 13.3° C bedeckt
Di, 17.05. 7:30 12.9° C bewölkt
Di, 17.05. 7:00 13.1° C bewölkt
Di, 17.05. 6:30 13.2° C bedeckt
Di, 17.05. 6:00 13.4° C bedeckt
Di, 17.05. 5:30 13.7° C bedeckt
Ortszeit Relative Feuchte Sichtweite
Di, 17.05. 8:00 62% 35 km
Di, 17.05. 2:00 58% 50 km
Mo, 16.05. 20:00 46% 35 km
Mo, 16.05. 14:00 42% 35 km
Mo, 16.05. 8:00 75% 30 km
Mo, 16.05. 2:00 87% 35 km
So, 15.05. 20:00 45% 60 km
So, 15.05. 14:00 42% 45 km
Ortszeit Relative Feuchte Sichtweite
Di, 17.05. 8:30 63% 45 km
Di, 17.05. 8:20 63% -
Di, 17.05. 8:10 62% -
Di, 17.05. 8:00 62% 35 km
Di, 17.05. 7:50 62% -
Di, 17.05. 7:40 63% -
Di, 17.05. 7:30 64% 40 km
Di, 17.05. 7:00 63% 50 km
Di, 17.05. 6:30 63% 40 km
Di, 17.05. 6:00 62% 45 km
Di, 17.05. 5:30 61% 40 km
Ortszeit Niederschlagsmenge Niederschlagsart
Di, 17.05. 8:00 0.1 l/m2 in 12 Std. Regen
Di, 17.05. 2:00 0.0 l/m2 in 6 Std. -
Mo, 16.05. 20:00 0.0 l/m2 in 12 Std. -
Mo, 16.05. 14:00 0.0 l/m2 in 6 Std. -
Mo, 16.05. 8:00 0.0 l/m2 in 12 Std. -
Mo, 16.05. 2:00 0.0 l/m2 in 6 Std. -
So, 15.05. 20:00 0.0 l/m2 in 12 Std. -
So, 15.05. 14:00 0.0 l/m2 in 6 Std. -
Ortszeit Niederschlagsmenge Niederschlagsart
Di, 17.05. 8:30 0.0 l/m2 in 1 Std. -
Di, 17.05. 8:20 keine Meldung -
Di, 17.05. 8:10 keine Meldung -
Di, 17.05. 8:00 0.0 l/m2 in 1 Std. Regen
Di, 17.05. 7:50 keine Meldung -
Di, 17.05. 7:40 keine Meldung -
Di, 17.05. 7:30 0.0 l/m2 in 1 Std. -
Di, 17.05. 7:00 0.1 l/m2 in 1 Std. Regen
Di, 17.05. 6:30 0.0 l/m2 in 1 Std. -
Di, 17.05. 6:00 0.0 l/m2 in 1 Std. -
Di, 17.05. 5:30 0.0 l/m2 in 1 Std. -
Ortszeit Stärke Spitze Richtung
km/h Bft. km/h Grad Sektor
Di, 17.05. 8:00 7 2 25 40° NO
Di, 17.05. 2:00 11 2 22 80° O
Mo, 16.05. 20:00 7 2 22 50° NO
Mo, 16.05. 14:00 9 2 20 90° O
Mo, 16.05. 8:00 7 2 13 90° O
Mo, 16.05. 2:00 4 1 18 80° O
So, 15.05. 20:00 7 2 22 20° N
So, 15.05. 14:00 7 2 22 260° W
Ortszeit Stärke Spitze Richtung
km/h Bft. km/h Grad Sektor
Di, 17.05. 8:30 9 2 15 70° O
Di, 17.05. 8:20 9 2 - 70° O
Di, 17.05. 8:10 7 2 - 80° O
Di, 17.05. 8:00 7 2 22 40° NO
Di, 17.05. 7:50 7 2 - 40° NO
Di, 17.05. 7:40 4 1 - 60° NO
Di, 17.05. 7:30 9 2 20 80° O
Di, 17.05. 7:00 11 2 22 70° O
Di, 17.05. 6:30 11 2 22 70° O
Di, 17.05. 6:00 13 3 26 80° O
Di, 17.05. 5:30 14 3 25 70° O
Ortszeit Untergrenze Bedeckung Gattung
total tief tief mittel hoch
Di, 17.05. 8:00 2100 m 8/8 8/8 - - -
Di, 17.05. 2:00 2400 m 8/8 2/8 - - -
Mo, 16.05. 20:00 5100 m 8/8 8/8 - - -
Mo, 16.05. 14:00 6000 m 7/8 5/8 - - -
Mo, 16.05. 8:00 10500 m 1/8 0/8 - - -
Mo, 16.05. 2:00 9000 m 7/8 0/8 - - -
So, 15.05. 20:00 - 0/8 0/8 - - -
So, 15.05. 14:00 - 0/8 0/8 - - -
Ortszeit Bedeckungsgrad in Achtel und Wolkenuntergrenze
Di, 17.05. 8:30 8(3300m)
Di, 17.05. 8:20 8(3300m)
Di, 17.05. 8:10 8
Di, 17.05. 8:00 3(2100m) 8(2700m)
Di, 17.05. 7:50 3(2100m) 8(2700m)
Di, 17.05. 7:40 8
Di, 17.05. 7:30 7(2700m)
Di, 17.05. 7:00 7(2400m) 8(3000m) 8(3900m)
Di, 17.05. 6:30 3(1800m) 6(2400m) 8(2700m)
Di, 17.05. 6:00 8(2700m)
Di, 17.05. 5:30 8(2400m)
Ortszeit Luftdruck NN (hPa) Tendenz (hPa in 3 Std.)
Di, 17.05. 8:00 1020 + 2,0
Di, 17.05. 2:00 1018 0,0
Mo, 16.05. 20:00 1017 - 0,5
Mo, 16.05. 14:00 1019 - 1,3
Mo, 16.05. 8:00 1021 - 0,3
Mo, 16.05. 2:00 1021 + 0,3
So, 15.05. 20:00 1020 - 0,7
So, 15.05. 14:00 1022 - 1,2
Ortszeit Luftdruck NN (hPa) Tendenz (hPa in 3 Std.)
Di, 17.05. 8:30 1019 + 1,8
Di, 17.05. 8:20 1019 keine Meldung
Di, 17.05. 8:10 1019 keine Meldung
Di, 17.05. 8:00 1020 + 2,0
Di, 17.05. 7:50 1020 keine Meldung
Di, 17.05. 7:40 1019 keine Meldung
Di, 17.05. 7:30 1019 + 1,5
Di, 17.05. 7:00 1019 + 1,2
Di, 17.05. 6:30 1018 + 0,8
Di, 17.05. 6:00 1018 + 0,6
Di, 17.05. 5:30 1018 + 0,1
Ortszeit Schneehöhe (cm)
Di, 17.05. 8:00 0
Di, 17.05. 2:00 0
Mo, 16.05. 20:00 0
Mo, 16.05. 14:00 0
Mo, 16.05. 8:00 0
Mo, 16.05. 2:00 0
So, 15.05. 20:00 0
So, 15.05. 14:00 0
Ortszeit Schneehöhe (cm)
Di, 17.05. 8:30 0
Di, 17.05. 8:20 0
Di, 17.05. 8:10 0
Di, 17.05. 8:00 0
Di, 17.05. 7:50 0
Di, 17.05. 7:40 0
Di, 17.05. 7:30 0
Di, 17.05. 7:00 0
Di, 17.05. 6:30 0
Di, 17.05. 6:00 0
Di, 17.05. 5:30 0
Link zu dieser Seite / Seite empfehlen

Das Wetter in ...